Stations météo

Publicité
Dalwhinnie, Grande-Bretagne (99005): Température de l'air & dewpoint: 20.09.2017 12:00:00 - 26.09.2017 12:00:00 (BST)Dalwhinnie, Grande-Bretagne (99005): Quantités de précipitations: 20.09.2017 12:00:00 - 26.09.2017 12:00:00 (BST)
Date & Time tt [°C] td [°C] rr [mm]
26.09.2017 12:00:00 - - -
26.09.2017 11:00:00 11,7 11,5 0,0
26.09.2017 10:00:00 11,7 11,4 0,0
26.09.2017 09:00:00 12,0 11,8 0,0
26.09.2017 08:00:00 11,7 11,6 0,0
26.09.2017 07:00:00 11,8 11,5 0,0
26.09.2017 06:00:00 11,9 11,3 0,0
26.09.2017 05:00:00 12,1 10,9 0,0
26.09.2017 04:00:00 11,9 10,3 0,0
26.09.2017 03:00:00 11,7 9,9 0,0
26.09.2017 02:00:00 12,0 10,3 0,0
26.09.2017 01:00:00 11,2 10,1 0,0
26.09.2017 00:00:00 10,6 9,4 0,0
25.09.2017 23:00:00 10,6 9,2 0,0
25.09.2017 22:00:00 11,7 10,1 0,0
25.09.2017 21:00:00 11,3 10,0 0,0
25.09.2017 20:00:00 10,0 8,7 0,0
25.09.2017 19:00:00 13,0 10,2 0,0
25.09.2017 18:00:00 13,9 10,6 0,0
25.09.2017 17:00:00 14,2 10,0 0,0
25.09.2017 16:00:00 14,0 10,2 0,0
25.09.2017 15:00:00 13,9 9,7 0,0
25.09.2017 14:00:00 15,4 10,6 0,0
25.09.2017 13:00:00 13,7 10,0 0,0
25.09.2017 12:00:00 14,2 11,1 0,0
25.09.2017 11:00:00 14,0 9,5 0,0
25.09.2017 10:00:00 13,0 9,2 0,0
25.09.2017 09:00:00 11,9 9,8 0,0
25.09.2017 08:00:00 11,4 9,5 0,0
25.09.2017 07:00:00 11,8 9,9 0,0
25.09.2017 06:00:00 12,0 11,3 0,0
25.09.2017 05:00:00 11,7 11,5 0,6
25.09.2017 04:00:00 10,9 10,7 0,0
25.09.2017 03:00:00 10,9 10,7 0,8
25.09.2017 02:00:00 10,9 10,6 1,2
25.09.2017 01:00:00 10,9 10,6 1,0
25.09.2017 00:00:00 10,9 10,5 1,2
24.09.2017 23:00:00 11,4 10,5 0,2
24.09.2017 22:00:00 12,5 10,6 0,0
24.09.2017 21:00:00 11,8 10,6 0,0
24.09.2017 20:00:00 12,0 10,4 0,0
24.09.2017 19:00:00 11,9 10,2 0,8
24.09.2017 18:00:00 11,6 10,0 1,2
24.09.2017 17:00:00 11,5 9,9 0,2
24.09.2017 16:00:00 11,5 10,2 0,0
24.09.2017 15:00:00 12,4 10,8 0,4
24.09.2017 14:00:00 11,8 10,1 0,6
24.09.2017 13:00:00 11,9 9,6 0,4
24.09.2017 12:00:00 11,7 9,7 0,4
24.09.2017 11:00:00 11,5 9,6 0,0
24.09.2017 10:00:00 11,3 9,5 0,4
24.09.2017 09:00:00 11,3 9,6 -
24.09.2017 08:00:00 11,6 9,5 0,0
24.09.2017 07:00:00 11,6 9,7 0,2
24.09.2017 06:00:00 12,0 9,5 0,0
24.09.2017 05:00:00 12,1 9,6 0,0
24.09.2017 04:00:00 12,9 9,2 -
24.09.2017 03:00:00 13,3 8,7 0,0
24.09.2017 02:00:00 13,3 9,3 0,0
24.09.2017 01:00:00 13,5 8,2 0,0
24.09.2017 00:00:00 13,3 8,3 0,0
23.09.2017 23:00:00 13,0 7,4 0,0
23.09.2017 22:00:00 13,1 8,4 0,0
23.09.2017 21:00:00 13,9 8,5 0,0
23.09.2017 20:00:00 14,3 11,4 0,0
23.09.2017 19:00:00 13,6 11,7 0,0
23.09.2017 18:00:00 13,4 11,7 0,0
23.09.2017 17:00:00 13,5 11,4 0,0
23.09.2017 16:00:00 14,0 11,5 0,0
23.09.2017 15:00:00 13,4 10,9 0,0
23.09.2017 14:00:00 13,9 10,5 0,0
23.09.2017 13:00:00 13,3 9,3 0,0
23.09.2017 12:00:00 13,5 9,1 0,0
23.09.2017 11:00:00 13,2 8,6 0,0
23.09.2017 10:00:00 12,3 8,8 0,0
23.09.2017 09:00:00 11,8 8,5 0,0
23.09.2017 08:00:00 10,5 7,8 0,0
23.09.2017 07:00:00 10,6 7,9 0,0
23.09.2017 06:00:00 10,8 8,1 0,0
23.09.2017 05:00:00 9,4 7,7 0,0
23.09.2017 04:00:00 9,8 7,8 0,0
23.09.2017 03:00:00 10,1 7,8 0,0
23.09.2017 02:00:00 10,4 8,3 0,0
23.09.2017 01:00:00 10,0 8,4 0,0
23.09.2017 00:00:00 10,1 8,7 0,0
22.09.2017 23:00:00 9,7 8,9 0,0
22.09.2017 22:00:00 10,0 8,6 0,0
22.09.2017 21:00:00 9,9 8,2 0,0
22.09.2017 20:00:00 9,7 7,9 0,0
22.09.2017 19:00:00 9,6 7,7 0,0
22.09.2017 18:00:00 9,5 7,9 0,0
22.09.2017 17:00:00 9,9 8,1 0,0
22.09.2017 16:00:00 10,1 8,1 0,0
22.09.2017 15:00:00 10,3 8,4 0,0
22.09.2017 14:00:00 10,2 8,2 0,4
22.09.2017 13:00:00 9,6 8,1 0,8
22.09.2017 12:00:00 10,0 7,7 0,0
22.09.2017 11:00:00 9,6 6,4 0,0
22.09.2017 10:00:00 8,6 6,5 0,0
22.09.2017 09:00:00 7,8 5,8 0,0
22.09.2017 08:00:00 7,6 5,7 0,0
22.09.2017 07:00:00 4,8 4,1 0,0
22.09.2017 06:00:00 5,4 4,5 0,0
22.09.2017 05:00:00 5,2 4,7 0,0
22.09.2017 04:00:00 3,7 3,4 0,0
22.09.2017 03:00:00 2,0 1,8 0,0
22.09.2017 02:00:00 1,2 0,8 0,0
22.09.2017 01:00:00 2,2 1,9 0,0
22.09.2017 00:00:00 2,1 1,6 0,0
21.09.2017 23:00:00 2,9 2,1 0,0
21.09.2017 22:00:00 3,4 2,4 0,0
21.09.2017 21:00:00 6,8 4,4 0,0
21.09.2017 20:00:00 8,3 5,1 0,0
21.09.2017 19:00:00 9,5 6,0 0,0
21.09.2017 18:00:00 10,5 7,1 0,0
21.09.2017 17:00:00 11,0 7,6 0,0
21.09.2017 16:00:00 10,4 7,7 0,2
21.09.2017 15:00:00 9,5 8,3 0,2
21.09.2017 14:00:00 9,7 8,6 0,0
21.09.2017 13:00:00 9,1 8,4 0,6
21.09.2017 12:00:00 8,9 8,4 0,6
21.09.2017 11:00:00 8,9 8,6 0,4
21.09.2017 10:00:00 8,4 8,1 0,2
21.09.2017 09:00:00 8,4 8,0 1,0
21.09.2017 08:00:00 8,2 7,8 2,2
21.09.2017 07:00:00 8,4 7,9 1,2
21.09.2017 06:00:00 8,7 8,3 0,8
21.09.2017 05:00:00 9,0 8,8 0,0
21.09.2017 04:00:00 9,1 8,9 0,2
21.09.2017 03:00:00 9,4 9,2 0,0
21.09.2017 02:00:00 9,4 9,0 0,2
21.09.2017 01:00:00 9,7 9,2 1,4
21.09.2017 00:00:00 9,9 9,6 2,2
20.09.2017 23:00:00 10,3 9,7 1,4
20.09.2017 22:00:00 10,7 10,1 2,4
20.09.2017 21:00:00 10,8 10,2 1,6
20.09.2017 20:00:00 11,5 10,9 2,8
20.09.2017 19:00:00 12,6 12,0 0,4
20.09.2017 18:00:00 13,1 12,4 1,2
20.09.2017 17:00:00 13,2 12,4 1,0
20.09.2017 16:00:00 13,5 12,7 0,2
20.09.2017 15:00:00 13,7 12,5 0,0
20.09.2017 14:00:00 14,9 11,8 0,0
20.09.2017 13:00:00 13,5 11,7 0,2
20.09.2017 12:00:00 13,2 11,9 0,0

tt = Température de l'air
td = dewpoint
rr = Quantités de précipitations

stations d'obs. à proximité